sensor_id;sensor_type;location;lat;lon;timestamp;P1;durP1;ratioP1;P2;durP2;ratioP2
10114;SDS011;5097;43.260;27.812;2023-06-22T00:00:54;7.05;;;6.38;;
10114;SDS011;5097;43.260;27.812;2023-06-22T00:03:39;7.15;;;6.55;;
10114;SDS011;5097;43.260;27.812;2023-06-22T00:06:24;6.53;;;5.95;;
10114;SDS011;5097;43.260;27.812;2023-06-22T00:09:09;8.40;;;7.55;;
10114;SDS011;5097;43.260;27.812;2023-06-22T00:11:52;7.25;;;6.57;;
10114;SDS011;5097;43.260;27.812;2023-06-22T00:14:36;8.65;;;7.07;;
10114;SDS011;5097;43.260;27.812;2023-06-22T00:17:20;8.70;;;7.10;;
10114;SDS011;5097;43.260;27.812;2023-06-22T00:20:05;7.70;;;7.00;;
10114;SDS011;5097;43.260;27.812;2023-06-22T00:22:53;7.55;;;6.82;;
10114;SDS011;5097;43.260;27.812;2023-06-22T00:25:38;7.90;;;6.72;;
10114;SDS011;5097;43.260;27.812;2023-06-22T00:28:23;7.80;;;6.85;;
10114;SDS011;5097;43.260;27.812;2023-06-22T00:31:08;7.93;;;7.30;;
10114;SDS011;5097;43.260;27.812;2023-06-22T00:33:52;10.30;;;7.78;;
10114;SDS011;5097;43.260;27.812;2023-06-22T00:36:36;8.13;;;7.43;;
10114;SDS011;5097;43.260;27.812;2023-06-22T00:39:24;8.40;;;7.57;;
10114;SDS011;5097;43.260;27.812;2023-06-22T00:42:08;7.68;;;6.95;;
10114;SDS011;5097;43.260;27.812;2023-06-22T00:44:52;7.60;;;7.00;;
10114;SDS011;5097;43.260;27.812;2023-06-22T00:47:39;9.35;;;7.32;;
10114;SDS011;5097;43.260;27.812;2023-06-22T00:50:25;8.05;;;7.45;;
10114;SDS011;5097;43.260;27.812;2023-06-22T00:53:12;8.60;;;7.80;;
10114;SDS011;5097;43.260;27.812;2023-06-22T00:55:57;9.90;;;8.88;;
10114;SDS011;5097;43.260;27.812;2023-06-22T00:58:42;9.68;;;7.38;;
10114;SDS011;5097;43.260;27.812;2023-06-22T01:01:26;8.75;;;7.80;;
10114;SDS011;5097;43.260;27.812;2023-06-22T01:04:11;8.40;;;7.53;;
10114;SDS011;5097;43.260;27.812;2023-06-22T01:07:10;8.25;;;7.47;;
10114;SDS011;5097;43.260;27.812;2023-06-22T01:10:06;8.80;;;8.00;;
10114;SDS011;5097;43.260;27.812;2023-06-22T01:12:53;10.38;;;8.15;;
10114;SDS011;5097;43.260;27.812;2023-06-22T01:15:43;8.35;;;7.55;;
10114;SDS011;5097;43.260;27.812;2023-06-22T01:18:33;11.02;;;7.88;;
10114;SDS011;5097;43.260;27.812;2023-06-22T01:21:20;10.40;;;8.90;;
10114;SDS011;5097;43.260;27.812;2023-06-22T01:24:10;8.88;;;8.02;;
10114;SDS011;5097;43.260;27.812;2023-06-22T01:27:05;9.57;;;7.57;;
10114;SDS011;5097;43.260;27.812;2023-06-22T01:30:00;10.60;;;8.02;;
10114;SDS011;5097;43.260;27.812;2023-06-22T01:32:50;14.75;;;8.43;;
10114;SDS011;5097;43.260;27.812;2023-06-22T01:35:36;11.35;;;9.30;;
10114;SDS011;5097;43.260;27.812;2023-06-22T01:38:21;11.82;;;8.88;;
10114;SDS011;5097;43.260;27.812;2023-06-22T01:41:06;10.00;;;9.07;;
10114;SDS011;5097;43.260;27.812;2023-06-22T01:43:49;10.05;;;9.05;;
10114;SDS011;5097;43.260;27.812;2023-06-22T01:46:37;10.27;;;9.07;;
10114;SDS011;5097;43.260;27.812;2023-06-22T01:49:23;10.13;;;9.13;;
10114;SDS011;5097;43.260;27.812;2023-06-22T01:52:07;9.93;;;9.00;;
10114;SDS011;5097;43.260;27.812;2023-06-22T01:54:51;10.85;;;8.85;;
10114;SDS011;5097;43.260;27.812;2023-06-22T01:57:35;10.02;;;9.13;;
10114;SDS011;5097;43.260;27.812;2023-06-22T02:00:21;9.88;;;8.70;;
10114;SDS011;5097;43.260;27.812;2023-06-22T02:03:13;9.63;;;8.70;;
10114;SDS011;5097;43.260;27.812;2023-06-22T02:06:03;10.48;;;9.48;;
10114;SDS011;5097;43.260;27.812;2023-06-22T02:08:51;13.43;;;9.50;;
10114;SDS011;5097;43.260;27.812;2023-06-22T02:11:41;11.23;;;8.90;;
10114;SDS011;5097;43.260;27.812;2023-06-22T02:14:29;9.85;;;8.95;;
10114;SDS011;5097;43.260;27.812;2023-06-22T02:17:13;11.00;;;9.93;;
10114;SDS011;5097;43.260;27.812;2023-06-22T02:19:59;10.77;;;9.68;;
10114;SDS011;5097;43.260;27.812;2023-06-22T02:22:50;15.07;;;10.60;;
10114;SDS011;5097;43.260;27.812;2023-06-22T02:25:35;11.55;;;10.20;;
10114;SDS011;5097;43.260;27.812;2023-06-22T02:28:19;11.23;;;9.75;;
10114;SDS011;5097;43.260;27.812;2023-06-22T02:31:03;11.43;;;9.25;;
10114;SDS011;5097;43.260;27.812;2023-06-22T02:33:47;11.15;;;10.07;;
10114;SDS011;5097;43.260;27.812;2023-06-22T02:36:35;10.88;;;9.63;;
10114;SDS011;5097;43.260;27.812;2023-06-22T02:39:19;10.68;;;9.57;;
10114;SDS011;5097;43.260;27.812;2023-06-22T02:42:05;12.90;;;9.25;;
10114;SDS011;5097;43.260;27.812;2023-06-22T02:44:49;10.63;;;9.60;;
10114;SDS011;5097;43.260;27.812;2023-06-22T02:47:35;13.32;;;10.10;;
10114;SDS011;5097;43.260;27.812;2023-06-22T02:50:19;11.02;;;10.02;;
10114;SDS011;5097;43.260;27.812;2023-06-22T02:53:05;10.80;;;9.82;;
10114;SDS011;5097;43.260;27.812;2023-06-22T02:55:52;10.90;;;10.02;;
10114;SDS011;5097;43.260;27.812;2023-06-22T02:58:36;11.52;;;10.32;;
10114;SDS011;5097;43.260;27.812;2023-06-22T03:01:26;10.48;;;9.57;;
10114;SDS011;5097;43.260;27.812;2023-06-22T03:04:13;12.23;;;10.93;;
10114;SDS011;5097;43.260;27.812;2023-06-22T03:06:58;10.98;;;9.85;;
10114;SDS011;5097;43.260;27.812;2023-06-22T03:09:46;10.73;;;9.70;;
10114;SDS011;5097;43.260;27.812;2023-06-22T03:12:30;11.00;;;9.90;;
10114;SDS011;5097;43.260;27.812;2023-06-22T03:15:14;11.60;;;10.57;;
10114;SDS011;5097;43.260;27.812;2023-06-22T03:17:59;10.48;;;9.35;;
10114;SDS011;5097;43.260;27.812;2023-06-22T03:20:44;11.07;;;9.65;;
10114;SDS011;5097;43.260;27.812;2023-06-22T03:23:28;10.93;;;9.98;;
10114;SDS011;5097;43.260;27.812;2023-06-22T03:26:16;11.27;;;9.73;;
10114;SDS011;5097;43.260;27.812;2023-06-22T03:29:00;14.23;;;9.77;;
10114;SDS011;5097;43.260;27.812;2023-06-22T03:31:46;11.35;;;9.27;;
10114;SDS011;5097;43.260;27.812;2023-06-22T03:34:30;10.60;;;9.70;;
10114;SDS011;5097;43.260;27.812;2023-06-22T03:37:16;11.35;;;9.18;;
10114;SDS011;5097;43.260;27.812;2023-06-22T03:40:01;9.30;;;8.35;;
10114;SDS011;5097;43.260;27.812;2023-06-22T03:42:49;10.18;;;8.95;;
10114;SDS011;5097;43.260;27.812;2023-06-22T03:45:33;9.10;;;8.30;;
10114;SDS011;5097;43.260;27.812;2023-06-22T03:48:17;9.55;;;8.55;;
10114;SDS011;5097;43.260;27.812;2023-06-22T03:51:02;9.10;;;8.25;;
10114;SDS011;5097;43.260;27.812;2023-06-22T03:53:46;9.35;;;8.10;;
10114;SDS011;5097;43.260;27.812;2023-06-22T03:56:30;9.18;;;8.27;;
10114;SDS011;5097;43.260;27.812;2023-06-22T03:59:15;9.95;;;8.85;;
10114;SDS011;5097;43.260;27.812;2023-06-22T04:01:59;10.38;;;7.97;;
10114;SDS011;5097;43.260;27.812;2023-06-22T04:04:44;8.63;;;7.88;;
10114;SDS011;5097;43.260;27.812;2023-06-22T04:07:28;8.48;;;7.72;;
10114;SDS011;5097;43.260;27.812;2023-06-22T04:10:12;9.52;;;7.18;;
10114;SDS011;5097;43.260;27.812;2023-06-22T04:13:00;8.27;;;7.30;;
10114;SDS011;5097;43.260;27.812;2023-06-22T04:15:46;7.35;;;6.65;;
10114;SDS011;5097;43.260;27.812;2023-06-22T04:18:30;7.78;;;7.05;;
10114;SDS011;5097;43.260;27.812;2023-06-22T04:21:14;7.75;;;7.05;;
10114;SDS011;5097;43.260;27.812;2023-06-22T04:23:58;8.10;;;7.30;;
10114;SDS011;5097;43.260;27.812;2023-06-22T04:26:42;12.57;;;7.75;;
10114;SDS011;5097;43.260;27.812;2023-06-22T04:29:27;9.02;;;8.18;;
10114;SDS011;5097;43.260;27.812;2023-06-22T04:32:13;9.90;;;8.38;;
10114;SDS011;5097;43.260;27.812;2023-06-22T04:34:58;9.82;;;7.65;;
10114;SDS011;5097;43.260;27.812;2023-06-22T04:37:45;9.77;;;7.53;;
10114;SDS011;5097;43.260;27.812;2023-06-22T04:40:30;9.02;;;8.25;;
10114;SDS011;5097;43.260;27.812;2023-06-22T04:43:14;12.15;;;7.18;;
10114;SDS011;5097;43.260;27.812;2023-06-22T04:45:58;9.88;;;7.55;;
10114;SDS011;5097;43.260;27.812;2023-06-22T04:48:47;8.00;;;7.25;;
10114;SDS011;5097;43.260;27.812;2023-06-22T04:51:31;8.93;;;7.72;;
10114;SDS011;5097;43.260;27.812;2023-06-22T04:54:15;13.60;;;7.75;;
10114;SDS011;5097;43.260;27.812;2023-06-22T04:56:59;8.88;;;8.02;;
10114;SDS011;5097;43.260;27.812;2023-06-22T04:59:43;9.80;;;8.38;;
10114;SDS011;5097;43.260;27.812;2023-06-22T05:02:27;8.40;;;7.65;;
10114;SDS011;5097;43.260;27.812;2023-06-22T05:05:15;10.35;;;8.30;;
10114;SDS011;5097;43.260;27.812;2023-06-22T05:08:00;10.32;;;8.20;;
10114;SDS011;5097;43.260;27.812;2023-06-22T05:10:45;9.90;;;8.60;;
10114;SDS011;5097;43.260;27.812;2023-06-22T05:13:45;8.88;;;7.93;;
10114;SDS011;5097;43.260;27.812;2023-06-22T05:16:29;8.43;;;7.63;;
10114;SDS011;5097;43.260;27.812;2023-06-22T05:19:14;7.47;;;6.78;;
10114;SDS011;5097;43.260;27.812;2023-06-22T05:21:59;9.07;;;8.02;;
10114;SDS011;5097;43.260;27.812;2023-06-22T05:24:43;10.25;;;8.18;;
10114;SDS011;5097;43.260;27.812;2023-06-22T05:27:27;9.00;;;7.40;;
10114;SDS011;5097;43.260;27.812;2023-06-22T05:30:11;7.82;;;7.13;;
10114;SDS011;5097;43.260;27.812;2023-06-22T05:32:55;10.63;;;7.57;;
10114;SDS011;5097;43.260;27.812;2023-06-22T05:35:39;7.65;;;6.88;;
10114;SDS011;5097;43.260;27.812;2023-06-22T05:38:25;7.40;;;6.10;;
10114;SDS011;5097;43.260;27.812;2023-06-22T05:41:09;6.70;;;6.10;;
10114;SDS011;5097;43.260;27.812;2023-06-22T05:43:53;6.20;;;5.80;;
10114;SDS011;5097;43.260;27.812;2023-06-22T05:46:37;6.78;;;6.20;;
10114;SDS011;5097;43.260;27.812;2023-06-22T05:49:23;6.95;;;6.35;;
10114;SDS011;5097;43.260;27.812;2023-06-22T05:52:11;7.32;;;6.55;;
10114;SDS011;5097;43.260;27.812;2023-06-22T05:54:57;6.75;;;6.00;;
10114;SDS011;5097;43.260;27.812;2023-06-22T05:57:41;6.38;;;5.78;;
10114;SDS011;5097;43.260;27.812;2023-06-22T06:00:25;7.25;;;6.55;;
10114;SDS011;5097;43.260;27.812;2023-06-22T06:03:09;6.25;;;5.65;;
10114;SDS011;5097;43.260;27.812;2023-06-22T06:05:56;6.43;;;5.82;;
10114;SDS011;5097;43.260;27.812;2023-06-22T06:08:41;6.88;;;6.03;;
10114;SDS011;5097;43.260;27.812;2023-06-22T06:11:26;6.75;;;6.03;;
10114;SDS011;5097;43.260;27.812;2023-06-22T06:14:10;7.68;;;6.82;;
10114;SDS011;5097;43.260;27.812;2023-06-22T06:16:54;6.70;;;6.03;;
10114;SDS011;5097;43.260;27.812;2023-06-22T06:19:38;6.15;;;5.57;;
10114;SDS011;5097;43.260;27.812;2023-06-22T06:22:22;7.75;;;6.53;;
10114;SDS011;5097;43.260;27.812;2023-06-22T06:25:06;8.00;;;6.13;;
10114;SDS011;5097;43.260;27.812;2023-06-22T06:27:52;6.82;;;6.15;;
10114;SDS011;5097;43.260;27.812;2023-06-22T06:30:37;7.32;;;5.82;;
10114;SDS011;5097;43.260;27.812;2023-06-22T06:33:21;6.75;;;6.03;;
10114;SDS011;5097;43.260;27.812;2023-06-22T06:36:07;6.07;;;5.57;;
10114;SDS011;5097;43.260;27.812;2023-06-22T06:38:51;6.80;;;5.43;;
10114;SDS011;5097;43.260;27.812;2023-06-22T06:41:35;6.95;;;5.97;;
10114;SDS011;5097;43.260;27.812;2023-06-22T06:44:25;5.72;;;5.05;;
10114;SDS011;5097;43.260;27.812;2023-06-22T06:47:10;4.90;;;4.50;;
10114;SDS011;5097;43.260;27.812;2023-06-22T06:49:54;7.07;;;5.50;;
10114;SDS011;5097;43.260;27.812;2023-06-22T06:52:38;7.10;;;6.40;;
10114;SDS011;5097;43.260;27.812;2023-06-22T06:55:22;6.15;;;5.55;;
10114;SDS011;5097;43.260;27.812;2023-06-22T06:58:07;5.72;;;5.32;;
10114;SDS011;5097;43.260;27.812;2023-06-22T07:00:53;6.03;;;5.55;;
10114;SDS011;5097;43.260;27.812;2023-06-22T07:03:38;6.07;;;4.97;;
10114;SDS011;5097;43.260;27.812;2023-06-22T07:06:22;7.20;;;5.70;;
10114;SDS011;5097;43.260;27.812;2023-06-22T07:09:11;5.97;;;5.57;;
10114;SDS011;5097;43.260;27.812;2023-06-22T07:11:55;6.10;;;5.60;;
10114;SDS011;5097;43.260;27.812;2023-06-22T07:14:39;6.65;;;5.93;;
10114;SDS011;5097;43.260;27.812;2023-06-22T07:17:24;8.05;;;5.55;;
10114;SDS011;5097;43.260;27.812;2023-06-22T07:20:09;6.30;;;5.32;;
10114;SDS011;5097;43.260;27.812;2023-06-22T07:22:54;6.20;;;5.63;;
10114;SDS011;5097;43.260;27.812;2023-06-22T07:25:38;6.13;;;5.63;;
10114;SDS011;5097;43.260;27.812;2023-06-22T07:28:23;5.80;;;5.32;;
10114;SDS011;5097;43.260;27.812;2023-06-22T07:31:07;6.03;;;5.45;;
10114;SDS011;5097;43.260;27.812;2023-06-22T07:33:53;5.40;;;5.00;;
10114;SDS011;5097;43.260;27.812;2023-06-22T07:36:36;6.40;;;5.88;;
10114;SDS011;5097;43.260;27.812;2023-06-22T07:39:21;5.72;;;5.22;;
10114;SDS011;5097;43.260;27.812;2023-06-22T07:42:08;5.53;;;5.13;;
10114;SDS011;5097;43.260;27.812;2023-06-22T07:44:52;5.90;;;5.30;;
10114;SDS011;5097;43.260;27.812;2023-06-22T07:47:37;5.40;;;5.00;;
10114;SDS011;5097;43.260;27.812;2023-06-22T07:50:22;5.43;;;4.93;;
10114;SDS011;5097;43.260;27.812;2023-06-22T07:53:06;5.57;;;5.00;;
10114;SDS011;5097;43.260;27.812;2023-06-22T07:55:50;5.95;;;5.45;;
10114;SDS011;5097;43.260;27.812;2023-06-22T07:58:34;5.53;;;5.13;;
10114;SDS011;5097;43.260;27.812;2023-06-22T08:01:19;5.80;;;5.30;;
10114;SDS011;5097;43.260;27.812;2023-06-22T08:04:03;7.78;;;5.95;;
10114;SDS011;5097;43.260;27.812;2023-06-22T08:06:49;7.90;;;5.72;;
10114;SDS011;5097;43.260;27.812;2023-06-22T08:09:33;7.13;;;5.45;;
10114;SDS011;5097;43.260;27.812;2023-06-22T08:12:17;5.50;;;5.10;;
10114;SDS011;5097;43.260;27.812;2023-06-22T08:15:03;5.68;;;5.18;;
10114;SDS011;5097;43.260;27.812;2023-06-22T08:17:48;5.47;;;4.90;;
10114;SDS011;5097;43.260;27.812;2023-06-22T08:20:31;5.45;;;4.95;;
10114;SDS011;5097;43.260;27.812;2023-06-22T08:23:17;5.13;;;4.72;;
10114;SDS011;5097;43.260;27.812;2023-06-22T08:26:01;5.78;;;5.28;;
10114;SDS011;5097;43.260;27.812;2023-06-22T08:28:45;6.22;;;5.72;;
10114;SDS011;5097;43.260;27.812;2023-06-22T08:31:31;5.28;;;4.63;;
10114;SDS011;5097;43.260;27.812;2023-06-22T08:34:17;4.70;;;4.30;;
10114;SDS011;5097;43.260;27.812;2023-06-22T08:37:03;6.47;;;4.95;;
10114;SDS011;5097;43.260;27.812;2023-06-22T08:39:50;4.78;;;4.38;;
10114;SDS011;5097;43.260;27.812;2023-06-22T08:42:34;7.47;;;4.45;;
10114;SDS011;5097;43.260;27.812;2023-06-22T08:45:18;5.30;;;4.80;;
10114;SDS011;5097;43.260;27.812;2023-06-22T08:48:03;5.00;;;4.60;;
10114;SDS011;5097;43.260;27.812;2023-06-22T08:50:47;4.88;;;4.47;;
10114;SDS011;5097;43.260;27.812;2023-06-22T08:53:31;5.55;;;4.90;;
10114;SDS011;5097;43.260;27.812;2023-06-22T08:56:18;5.22;;;4.70;;
10114;SDS011;5097;43.260;27.812;2023-06-22T08:59:02;5.18;;;4.78;;
10114;SDS011;5097;43.260;27.812;2023-06-22T09:01:49;4.28;;;3.97;;
10114;SDS011;5097;43.260;27.812;2023-06-22T09:04:33;4.85;;;4.25;;
10114;SDS011;5097;43.260;27.812;2023-06-22T09:07:18;7.25;;;4.10;;
10114;SDS011;5097;43.260;27.812;2023-06-22T09:10:05;4.50;;;4.10;;
10114;SDS011;5097;43.260;27.812;2023-06-22T09:12:51;4.78;;;4.40;;
10114;SDS011;5097;43.260;27.812;2023-06-22T09:15:35;5.00;;;4.50;;
10114;SDS011;5097;43.260;27.812;2023-06-22T09:18:19;4.43;;;4.13;;
10114;SDS011;5097;43.260;27.812;2023-06-22T09:21:03;4.50;;;4.20;;
10114;SDS011;5097;43.260;27.812;2023-06-22T09:23:47;4.07;;;3.80;;
10114;SDS011;5097;43.260;27.812;2023-06-22T09:26:33;4.50;;;4.07;;
10114;SDS011;5097;43.260;27.812;2023-06-22T09:29:18;7.60;;;6.00;;
10114;SDS011;5097;43.260;27.812;2023-06-22T09:32:03;12.43;;;6.63;;
10114;SDS011;5097;43.260;27.812;2023-06-22T09:34:47;8.35;;;6.40;;
10114;SDS011;5097;43.260;27.812;2023-06-22T09:37:31;12.85;;;7.07;;
10114;SDS011;5097;43.260;27.812;2023-06-22T09:40:16;18.25;;;7.15;;
10114;SDS011;5097;43.260;27.812;2023-06-22T09:43:00;20.75;;;7.70;;
10114;SDS011;5097;43.260;27.812;2023-06-22T09:45:45;7.07;;;6.38;;
10114;SDS011;5097;43.260;27.812;2023-06-22T09:48:29;10.60;;;7.38;;
10114;SDS011;5097;43.260;27.812;2023-06-22T09:51:13;6.82;;;6.22;;
10114;SDS011;5097;43.260;27.812;2023-06-22T09:53:59;7.20;;;6.50;;
10114;SDS011;5097;43.260;27.812;2023-06-22T09:56:43;8.85;;;6.25;;
10114;SDS011;5097;43.260;27.812;2023-06-22T09:59:27;8.43;;;6.55;;
10114;SDS011;5097;43.260;27.812;2023-06-22T10:02:12;8.93;;;6.70;;
10114;SDS011;5097;43.260;27.812;2023-06-22T10:04:56;9.45;;;7.95;;
10114;SDS011;5097;43.260;27.812;2023-06-22T10:07:41;11.82;;;7.78;;
10114;SDS011;5097;43.260;27.812;2023-06-22T10:10:26;11.60;;;7.43;;
10114;SDS011;5097;43.260;27.812;2023-06-22T10:13:10;23.63;;;9.70;;
10114;SDS011;5097;43.260;27.812;2023-06-22T10:15:55;10.30;;;7.07;;
10114;SDS011;5097;43.260;27.812;2023-06-22T10:18:40;11.68;;;8.05;;
10114;SDS011;5097;43.260;27.812;2023-06-22T10:21:24;8.50;;;7.70;;
10114;SDS011;5097;43.260;27.812;2023-06-22T10:24:09;8.73;;;7.50;;
10114;SDS011;5097;43.260;27.812;2023-06-22T10:26:53;17.83;;;8.00;;
10114;SDS011;5097;43.260;27.812;2023-06-22T10:29:37;9.15;;;8.32;;
10114;SDS011;5097;43.260;27.812;2023-06-22T10:32:21;7.88;;;7.07;;
10114;SDS011;5097;43.260;27.812;2023-06-22T10:35:07;7.80;;;7.13;;
10114;SDS011;5097;43.260;27.812;2023-06-22T10:37:53;10.05;;;8.07;;
10114;SDS011;5097;43.260;27.812;2023-06-22T10:40:38;8.90;;;8.20;;
10114;SDS011;5097;43.260;27.812;2023-06-22T10:43:22;12.15;;;7.75;;
10114;SDS011;5097;43.260;27.812;2023-06-22T10:46:06;8.43;;;7.72;;
10114;SDS011;5097;43.260;27.812;2023-06-22T10:48:50;8.57;;;7.78;;
10114;SDS011;5097;43.260;27.812;2023-06-22T10:51:38;10.18;;;8.57;;
10114;SDS011;5097;43.260;27.812;2023-06-22T10:54:23;8.23;;;7.43;;
10114;SDS011;5097;43.260;27.812;2023-06-22T10:57:07;10.13;;;7.70;;
10114;SDS011;5097;43.260;27.812;2023-06-22T10:59:51;9.48;;;6.95;;
10114;SDS011;5097;43.260;27.812;2023-06-22T11:02:36;7.97;;;7.15;;
10114;SDS011;5097;43.260;27.812;2023-06-22T11:05:20;7.80;;;7.10;;
10114;SDS011;5097;43.260;27.812;2023-06-22T11:08:05;7.80;;;7.00;;
10114;SDS011;5097;43.260;27.812;2023-06-22T11:10:50;8.43;;;7.43;;
10114;SDS011;5097;43.260;27.812;2023-06-22T11:13:35;8.02;;;7.30;;
10114;SDS011;5097;43.260;27.812;2023-06-22T11:16:18;8.52;;;7.82;;
10114;SDS011;5097;43.260;27.812;2023-06-22T11:19:04;9.10;;;8.23;;
10114;SDS011;5097;43.260;27.812;2023-06-22T11:21:48;12.40;;;8.40;;
10114;SDS011;5097;43.260;27.812;2023-06-22T11:24:34;10.70;;;7.95;;
10114;SDS011;5097;43.260;27.812;2023-06-22T11:27:18;9.20;;;8.23;;
10114;SDS011;5097;43.260;27.812;2023-06-22T11:30:02;8.65;;;7.88;;
10114;SDS011;5097;43.260;27.812;2023-06-22T11:32:47;11.52;;;7.95;;
10114;SDS011;5097;43.260;27.812;2023-06-22T11:35:31;9.15;;;8.25;;
10114;SDS011;5097;43.260;27.812;2023-06-22T11:38:15;12.07;;;8.57;;
10114;SDS011;5097;43.260;27.812;2023-06-22T11:41:00;8.80;;;8.10;;
10114;SDS011;5097;43.260;27.812;2023-06-22T11:43:44;16.55;;;9.02;;
10114;SDS011;5097;43.260;27.812;2023-06-22T11:46:28;8.82;;;7.90;;
10114;SDS011;5097;43.260;27.812;2023-06-22T11:49:12;14.18;;;8.90;;
10114;SDS011;5097;43.260;27.812;2023-06-22T11:51:56;17.17;;;7.93;;
10114;SDS011;5097;43.260;27.812;2023-06-22T11:54:40;9.43;;;7.60;;
10114;SDS011;5097;43.260;27.812;2023-06-22T11:57:25;14.95;;;8.27;;
10114;SDS011;5097;43.260;27.812;2023-06-22T12:00:10;22.70;;;9.60;;
10114;SDS011;5097;43.260;27.812;2023-06-22T12:03:00;10.13;;;8.52;;
10114;SDS011;5097;43.260;27.812;2023-06-22T12:05:44;17.45;;;7.63;;
10114;SDS011;5097;43.260;27.812;2023-06-22T12:08:28;8.88;;;7.30;;
10114;SDS011;5097;43.260;27.812;2023-06-22T12:11:12;11.30;;;7.88;;
10114;SDS011;5097;43.260;27.812;2023-06-22T12:13:58;22.08;;;9.32;;
10114;SDS011;5097;43.260;27.812;2023-06-22T12:16:44;9.00;;;8.10;;
10114;SDS011;5097;43.260;27.812;2023-06-22T12:19:27;17.02;;;8.68;;
10114;SDS011;5097;43.260;27.812;2023-06-22T12:22:11;8.32;;;7.53;;
10114;SDS011;5097;43.260;27.812;2023-06-22T12:24:55;9.18;;;7.88;;
10114;SDS011;5097;43.260;27.812;2023-06-22T12:27:39;8.52;;;7.60;;
10114;SDS011;5097;43.260;27.812;2023-06-22T12:30:25;9.07;;;8.18;;
10114;SDS011;5097;43.260;27.812;2023-06-22T12:33:09;8.80;;;7.97;;
10114;SDS011;5097;43.260;27.812;2023-06-22T12:35:54;12.18;;;7.68;;
10114;SDS011;5097;43.260;27.812;2023-06-22T12:38:38;9.63;;;8.25;;
10114;SDS011;5097;43.260;27.812;2023-06-22T12:41:21;8.82;;;7.95;;
10114;SDS011;5097;43.260;27.812;2023-06-22T12:44:05;12.70;;;8.32;;
10114;SDS011;5097;43.260;27.812;2023-06-22T12:46:51;10.50;;;8.40;;
10114;SDS011;5097;43.260;27.812;2023-06-22T12:49:35;10.07;;;8.80;;
10114;SDS011;5097;43.260;27.812;2023-06-22T12:52:19;13.15;;;7.65;;
10114;SDS011;5097;43.260;27.812;2023-06-22T12:55:03;8.48;;;7.68;;
10114;SDS011;5097;43.260;27.812;2023-06-22T12:57:47;9.00;;;8.10;;
10114;SDS011;5097;43.260;27.812;2023-06-22T13:00:31;32.47;;;9.52;;
10114;SDS011;5097;43.260;27.812;2023-06-22T13:03:17;8.30;;;7.30;;
10114;SDS011;5097;43.260;27.812;2023-06-22T13:06:01;9.05;;;6.90;;
10114;SDS011;5097;43.260;27.812;2023-06-22T13:08:45;9.50;;;7.13;;
10114;SDS011;5097;43.260;27.812;2023-06-22T13:11:33;12.30;;;7.43;;
10114;SDS011;5097;43.260;27.812;2023-06-22T13:14:17;24.75;;;8.10;;
10114;SDS011;5097;43.260;27.812;2023-06-22T13:17:01;9.55;;;6.88;;
10114;SDS011;5097;43.260;27.812;2023-06-22T13:19:46;15.55;;;7.35;;
10114;SDS011;5097;43.260;27.812;2023-06-22T13:22:30;9.48;;;7.13;;
10114;SDS011;5097;43.260;27.812;2023-06-22T13:25:16;8.70;;;6.22;;
10114;SDS011;5097;43.260;27.812;2023-06-22T13:28:02;8.15;;;6.75;;
10114;SDS011;5097;43.260;27.812;2023-06-22T13:30:48;7.30;;;6.53;;
10114;SDS011;5097;43.260;27.812;2023-06-22T13:33:32;10.43;;;6.15;;
10114;SDS011;5097;43.260;27.812;2023-06-22T13:36:18;16.25;;;7.25;;
10114;SDS011;5097;43.260;27.812;2023-06-22T13:39:01;10.35;;;5.65;;
10114;SDS011;5097;43.260;27.812;2023-06-22T13:41:45;34.78;;;8.38;;
10114;SDS011;5097;43.260;27.812;2023-06-22T13:44:29;6.18;;;5.57;;
10114;SDS011;5097;43.260;27.812;2023-06-22T13:47:14;15.10;;;5.60;;
10114;SDS011;5097;43.260;27.812;2023-06-22T13:49:58;13.07;;;6.47;;
10114;SDS011;5097;43.260;27.812;2023-06-22T13:52:46;7.07;;;5.25;;
10114;SDS011;5097;43.260;27.812;2023-06-22T13:55:30;5.93;;;5.53;;
10114;SDS011;5097;43.260;27.812;2023-06-22T13:58:15;9.18;;;5.78;;
10114;SDS011;5097;43.260;27.812;2023-06-22T14:00:58;5.43;;;4.57;;
10114;SDS011;5097;43.260;27.812;2023-06-22T14:03:42;11.60;;;5.60;;
10114;SDS011;5097;43.260;27.812;2023-06-22T14:06:27;17.20;;;6.13;;
10114;SDS011;5097;43.260;27.812;2023-06-22T14:09:13;19.13;;;5.88;;
10114;SDS011;5097;43.260;27.812;2023-06-22T14:11:57;16.42;;;6.53;;
10114;SDS011;5097;43.260;27.812;2023-06-22T14:14:41;16.60;;;5.05;;
10114;SDS011;5097;43.260;27.812;2023-06-22T14:17:25;9.85;;;5.75;;
10114;SDS011;5097;43.260;27.812;2023-06-22T14:20:09;11.68;;;6.32;;
10114;SDS011;5097;43.260;27.812;2023-06-22T14:22:54;17.05;;;6.28;;
10114;SDS011;5097;43.260;27.812;2023-06-22T14:25:40;11.90;;;6.38;;
10114;SDS011;5097;43.260;27.812;2023-06-22T14:28:24;10.98;;;6.60;;
10114;SDS011;5097;43.260;27.812;2023-06-22T14:31:08;8.45;;;5.85;;
10114;SDS011;5097;43.260;27.812;2023-06-22T14:33:52;10.80;;;6.13;;
10114;SDS011;5097;43.260;27.812;2023-06-22T14:36:36;14.68;;;7.63;;
10114;SDS011;5097;43.260;27.812;2023-06-22T14:39:20;20.70;;;7.60;;
10114;SDS011;5097;43.260;27.812;2023-06-22T14:42:06;24.42;;;8.38;;
10114;SDS011;5097;43.260;27.812;2023-06-22T14:44:50;27.60;;;8.68;;
10114;SDS011;5097;43.260;27.812;2023-06-22T14:47:34;8.90;;;7.05;;
10114;SDS011;5097;43.260;27.812;2023-06-22T14:50:18;12.85;;;7.15;;
10114;SDS011;5097;43.260;27.812;2023-06-22T14:53:02;14.65;;;7.07;;
10114;SDS011;5097;43.260;27.812;2023-06-22T14:55:46;20.60;;;7.55;;
10114;SDS011;5097;43.260;27.812;2023-06-22T14:58:32;7.68;;;6.70;;
10114;SDS011;5097;43.260;27.812;2023-06-22T15:01:17;7.47;;;6.75;;
10114;SDS011;5097;43.260;27.812;2023-06-22T15:04:02;7.32;;;6.60;;
10114;SDS011;5097;43.260;27.812;2023-06-22T15:06:46;7.72;;;7.00;;
10114;SDS011;5097;43.260;27.812;2023-06-22T15:09:30;7.57;;;6.78;;
10114;SDS011;5097;43.260;27.812;2023-06-22T15:12:15;18.67;;;7.47;;
10114;SDS011;5097;43.260;27.812;2023-06-22T15:15:01;9.15;;;7.15;;
10114;SDS011;5097;43.260;27.812;2023-06-22T15:17:46;7.22;;;6.63;;
10114;SDS011;5097;43.260;27.812;2023-06-22T15:20:29;7.15;;;6.50;;
10114;SDS011;5097;43.260;27.812;2023-06-22T15:23:14;40.80;;;9.52;;
10114;SDS011;5097;43.260;27.812;2023-06-22T15:25:58;15.85;;;7.85;;
10114;SDS011;5097;43.260;27.812;2023-06-22T15:28:43;11.70;;;7.00;;
10114;SDS011;5097;43.260;27.812;2023-06-22T15:31:29;7.95;;;6.28;;
10114;SDS011;5097;43.260;27.812;2023-06-22T15:34:13;17.20;;;8.48;;
10114;SDS011;5097;43.260;27.812;2023-06-22T15:36:57;9.95;;;6.03;;
10114;SDS011;5097;43.260;27.812;2023-06-22T15:39:41;12.18;;;7.13;;
10114;SDS011;5097;43.260;27.812;2023-06-22T15:42:25;13.23;;;7.63;;
10114;SDS011;5097;43.260;27.812;2023-06-22T15:45:09;9.80;;;7.22;;
10114;SDS011;5097;43.260;27.812;2023-06-22T15:47:55;119.50;;;15.23;;
10114;SDS011;5097;43.260;27.812;2023-06-22T15:50:39;13.77;;;7.47;;
10114;SDS011;5097;43.260;27.812;2023-06-22T15:53:23;51.50;;;10.00;;
10114;SDS011;5097;43.260;27.812;2023-06-22T15:56:07;8.50;;;6.82;;
10114;SDS011;5097;43.260;27.812;2023-06-22T15:58:51;57.63;;;13.05;;
10114;SDS011;5097;43.260;27.812;2023-06-22T16:01:35;7.80;;;6.07;;
10114;SDS011;5097;43.260;27.812;2023-06-22T16:04:21;23.98;;;8.43;;
10114;SDS011;5097;43.260;27.812;2023-06-22T16:07:05;13.95;;;7.70;;
10114;SDS011;5097;43.260;27.812;2023-06-22T16:09:49;7.53;;;6.13;;
10114;SDS011;5097;43.260;27.812;2023-06-22T16:12:33;10.23;;;7.40;;
10114;SDS011;5097;43.260;27.812;2023-06-22T16:15:18;16.50;;;7.80;;
10114;SDS011;5097;43.260;27.812;2023-06-22T16:18:02;37.53;;;9.57;;
10114;SDS011;5097;43.260;27.812;2023-06-22T16:20:48;13.40;;;7.10;;
10114;SDS011;5097;43.260;27.812;2023-06-22T16:23:32;7.35;;;6.63;;
10114;SDS011;5097;43.260;27.812;2023-06-22T16:26:16;7.57;;;6.78;;
10114;SDS011;5097;43.260;27.812;2023-06-22T16:29:00;6.15;;;5.70;;